Latest Weather Observations for Georgetown Airport

IDQ60801

Issued at 8:02 pm EST Wednesday 27 May 2015 (issued every 30 minutes, with the page automatically refreshed every 10 minutes)

About weather observations | Map of weather stations | Latest weather observations for QLD | Other Formats
Station Details ID: 030124 Name: GEORGETOWN AIRPORT Lat: -18.30 Lon: 143.53 Height: 301.77 m
Data from the previous 72 hours. | See also: Recent months at Georgetown Airport
Date/Time
EST
Temp
°C
App
Temp
°C
Dew
Point
Rel
Hum
%
Delta-T
°C
Wind Press
QNH
hPa
Press
MSL
hPa
Rain
since 9 am
mm
Dir
 
Spd
km/h
Gust
km/h
Spd
kts
Gust
kts
27/08:00pm 25.2 24.1 15.2 54 6.1 ESE 15 30 8 16 1017.0 - 0.0
27/07:30pm 25.3 24.8 15.0 53 6.3 SE 11 19 6 10 1016.9 - 0.0
27/07:00pm 26.0 24.9 15.4 52 6.5 SE 15 24 8 13 1016.5 - 0.0
27/06:30pm 26.4 25.6 15.1 49 6.9 SE 13 24 7 13 1016.1 - 0.0
27/06:00pm 27.1 26.8 15.5 49 7.2 SE 11 17 6 9 1015.8 1014.4 0.0
27/05:30pm 28.0 27.3 15.3 46 7.8 SE 13 24 7 13 1015.5 - 0.0
27/05:00pm 29.0 28.6 15.2 43 8.5 ESE 11 17 6 9 1015.2 - 0.0
27/04:30pm 29.2 28.4 15.0 42 8.8 ESE 13 24 7 13 1014.9 - 0.0
27/04:00pm 29.5 28.2 14.9 41 9.0 ESE 15 24 8 13 1014.9 - 0.0
27/03:30pm 29.8 29.0 15.1 40 9.1 ESE 13 20 7 11 1015.0 - 0.0
27/03:00pm 29.7 27.4 14.7 40 9.2 ENE 20 26 11 14 1015.1 1013.7 0.0
27/02:30pm 29.9 29.0 14.8 39 9.3 E 13 17 7 9 1015.4 - 0.0
27/02:00pm 30.0 29.0 14.5 38 9.5 ESE 13 22 7 12 1015.9 - 0.0
27/01:30pm 29.4 28.2 15.1 41 8.8 E 15 22 8 12 1016.2 - 0.0
27/01:00pm 27.8 26.6 15.1 46 7.8 SE 15 24 8 13 1017.1 - 0.0
27/12:30pm 27.3 26.5 15.0 47 7.5 E 13 20 7 11 1017.8 - 0.0
27/12:00pm 27.1 25.5 15.1 47 7.3 ESE 17 26 9 14 1018.5 1017.1 0.0
27/11:30am 26.6 25.3 14.7 48 7.2 E 15 26 8 14 1019.0 - 0.0
27/11:00am 25.6 23.3 14.1 49 6.9 E 19 28 10 15 1019.5 - 0.0
27/10:30am 25.5 23.5 14.9 52 6.4 E 19 28 10 15 1019.9 - 0.0
27/10:00am 24.4 21.9 15.1 56 5.6 E 22 35 12 19 1020.2 - 0.0
27/09:30am 23.8 21.7 15.3 59 5.2 ESE 20 32 11 17 1020.5 - 0.0
27/09:00am 23.1 20.7 15.4 62 4.7 ESE 22 35 12 19 1020.2 1018.8 0.0
27/08:30am 22.1 20.2 15.2 65 4.2 E 19 28 10 15 1019.8 - 0.0
27/08:00am 20.6 19.8 15.2 71 3.2 ESE 13 20 7 11 1019.5 - 0.0
27/07:30am 19.0 18.8 14.7 76 2.5 SE 9 13 5 7 1019.2 - 0.0
27/07:00am 18.2 17.9 14.5 79 2.2 SE 9 13 5 7 1019.0 - 0.0
27/06:30am 18.7 18.1 14.6 77 2.4 SE 11 22 6 12 1018.8 - 0.0
27/06:00am 18.2 17.7 13.7 75 2.6 SE 9 13 5 7 1018.5 1017.1 0.0
27/05:30am 18.7 18.2 13.8 73 2.8 ESE 9 11 5 6 1018.2 - 0.0
27/05:00am 19.0 18.8 13.6 71 3.1 ESE 7 11 4 6 1018.2 - 0.0
27/04:30am 19.8 19.1 14.2 70 3.3 ESE 11 17 6 9 1017.8 - 0.0
27/04:00am 19.7 19.3 14.1 70 3.3 ESE 9 15 5 8 1018.0 - 0.0
27/03:30am 19.5 19.0 13.7 69 3.4 E 9 11 5 6 1018.1 - 0.0
27/03:00am 19.8 19.2 13.5 67 3.6 E 9 13 5 7 1018.4 1017.0 0.0
27/02:30am 20.1 19.1 13.3 65 3.9 E 11 19 6 10 1018.5 - 0.0
27/02:00am 20.6 19.6 13.3 63 4.2 E 11 15 6 8 1018.7 - 0.0
27/01:30am 20.9 19.9 13.4 62 4.4 E 11 17 6 9 1019.0 - 0.0
27/01:00am 20.8 20.6 13.5 63 4.2 E 7 13 4 7 1019.2 - 0.0
27/12:30am 21.3 20.4 13.7 62 4.4 E 11 17 6 9 1019.2 - 0.0
27/12:00am 21.7 20.5 13.9 61 4.6 E 13 17 7 9 1019.0 1017.6 0.0
 
Date/Time
EST
Temp
°C
App
Temp
°C
Dew
Point
Rel
Hum
%
Delta-T
°C
Wind Press
QNH
hPa
Press
MSL
hPa
Rain
since 9 am
mm
Dir
 
Spd
km/h
Gust
km/h
Spd
kts
Gust
kts
26/11:30pm 21.8 21.0 13.9 61 4.7 E 11 15 6 8 1019.1 - 0.0
26/11:00pm 22.2 21.4 14.1 60 4.8 E 11 15 6 8 1019.1 - 0.0
26/10:30pm 22.6 21.9 14.2 59 5.0 E 11 19 6 10 1019.2 - 0.0
26/10:00pm 22.7 21.8 13.7 56 5.3 E 11 15 6 8 1019.2 - 0.0
26/09:30pm 23.3 22.4 13.8 55 5.6 E 11 15 6 8 1019.2 - 0.0
26/09:00pm 23.6 23.1 13.8 54 5.8 E 9 13 5 7 1019.3 1017.9 0.0
26/08:30pm 24.3 23.4 13.8 52 6.2 ESE 11 20 6 11 1019.2 - 0.0
26/08:00pm 24.7 24.0 14.2 52 6.3 ESE 11 17 6 9 1019.1 - 0.0
26/07:30pm 25.3 24.2 14.4 50 6.6 ESE 13 20 7 11 1018.8 - 0.0
26/07:00pm 25.8 24.7 14.3 49 6.9 ESE 13 22 7 12 1018.4 - 0.0
26/06:30pm 26.4 25.3 14.2 47 7.4 ESE 13 19 7 10 1017.7 - 0.0
26/06:00pm 27.2 26.4 13.9 44 8.0 ESE 11 17 6 9 1017.4 1016.0 0.0
26/05:30pm 28.4 27.7 13.1 39 9.1 ESE 9 17 5 9 1017.1 - 0.0
26/05:00pm 28.9 27.7 12.8 37 9.6 ESE 11 20 6 11 1016.9 - 0.0
26/04:30pm 29.2 27.9 12.6 36 9.9 SE 11 17 6 9 1016.8 - 0.0
26/04:00pm 29.3 27.6 12.3 35 10.1 ESE 13 20 7 11 1016.8 - 0.0
26/03:30pm 29.3 28.1 12.7 36 9.9 E 11 19 6 10 1016.8 - 0.0
26/03:00pm 29.7 29.3 13.0 35 10.0 SE 7 17 4 9 1017.0 1015.6 0.0
26/02:30pm 29.3 27.6 12.3 35 10.1 ENE 13 20 7 11 1017.4 - 0.0
26/02:00pm 28.6 25.8 13.3 39 9.2 E 20 32 11 17 1017.7 - 0.0
26/01:30pm 28.3 26.1 13.4 40 8.9 ESE 17 28 9 15 1018.2 - 0.0
26/01:00pm 27.7 25.9 13.3 41 8.6 E 15 24 8 13 1019.0 - 0.0
26/12:30pm 27.6 25.6 13.9 43 8.3 E 17 26 9 14 1019.5 - 0.0
26/12:00pm 27.3 25.1 14.3 45 7.9 ESE 19 24 10 13 1020.2 1018.8 0.0
26/11:30am 26.3 23.5 14.4 48 7.2 E 22 35 12 19 1020.7 - 0.0
26/11:00am 25.5 22.6 14.0 49 6.9 ESE 22 35 12 19 1021.2 - 0.0
26/10:30am 25.2 22.4 14.3 50 6.6 E 22 35 12 19 1021.8 - 0.0
26/10:00am 24.3 21.5 14.4 54 5.9 ESE 22 32 12 17 1022.1 - 0.0
26/09:30am 23.6 21.3 14.6 57 5.4 ESE 20 33 11 18 1022.2 - 0.0
26/09:00am 23.0 20.4 14.8 60 4.9 ESE 22 33 12 18 1022.2 1020.8 0.0
26/08:30am 22.3 20.8 15.2 64 4.3 ESE 17 28 9 15 1022.0 - 0.0
26/08:00am 20.7 18.6 14.8 69 3.5 ESE 19 30 10 16 1021.8 - 0.0
26/07:30am 20.2 18.9 14.8 71 3.2 ESE 15 24 8 13 1021.6 - 0.0
26/07:00am 19.6 18.7 14.8 74 2.8 ESE 13 22 7 12 1021.3 - 0.0
26/06:30am 19.6 17.5 14.8 74 2.8 ESE 19 28 10 15 1021.1 - 0.0
26/06:00am 19.4 17.8 15.1 76 2.5 ESE 17 26 9 14 1020.9 1019.6 0.0
26/05:30am 19.3 18.1 15.0 76 2.6 ESE 15 24 8 13 1020.8 - 0.0
26/05:00am 19.5 18.3 15.0 75 2.7 ESE 15 20 8 11 1020.7 - 0.0
26/04:30am 19.5 18.5 14.7 74 2.8 ESE 13 20 7 11 1020.7 - 0.0
26/04:00am 19.5 18.4 14.3 72 3.1 E 13 20 7 11 1020.8 - 0.0
26/03:30am 19.2 18.3 13.8 71 3.1 ESE 11 15 6 8 1020.8 - 0.0
26/03:00am 19.8 18.9 13.7 68 3.5 ESE 11 17 6 9 1020.8 1019.5 0.0
26/02:30am 19.9 18.7 14.0 69 3.4 E 13 17 7 9 1021.0 - 0.0
26/02:00am 20.1 18.9 14.0 68 3.6 E 13 20 7 11 1021.5 - 0.0
26/01:30am 20.3 19.0 13.7 66 3.8 E 13 19 7 10 1021.6 - 0.0
26/01:00am 20.5 19.6 13.7 65 4.0 E 11 17 6 9 1021.8 - 0.0
26/12:30am 20.9 19.2 13.6 63 4.3 E 15 22 8 12 1021.9 - 0.0
26/12:00am 21.4 19.2 13.3 60 4.7 E 17 32 9 17 1021.7 1020.3 0.0
 
Date/Time
EST
Temp
°C
App
Temp
°C
Dew
Point
Rel
Hum
%
Delta-T
°C
Wind Press
QNH
hPa
Press
MSL
hPa
Rain
since 9 am
mm
Dir
 
Spd
km/h
Gust
km/h
Spd
kts
Gust
kts
25/11:30pm 21.5 19.3 13.4 60 4.7 E 17 30 9 16 1021.9 - 0.0
25/11:00pm 21.6 19.5 13.5 60 4.7 E 17 24 9 13 1022.1 - 0.0
25/10:30pm 21.9 20.7 14.0 61 4.7 ESE 13 20 7 11 1022.1 - 0.0
25/10:00pm 22.5 21.1 14.4 60 4.8 ESE 15 24 8 13 1021.8 - 0.0
25/09:30pm 22.8 21.4 14.6 60 4.9 ESE 15 22 8 12 1021.6 - 0.0
25/09:00pm 23.4 22.1 14.9 59 5.1 E 15 24 8 13 1021.2 1019.9 0.0
25/08:30pm 23.9 22.3 14.9 57 5.4 E 17 26 9 14 1021.1 - 0.0
25/08:00pm 24.4 22.0 14.5 54 6.0 E 20 35 11 19 1020.6 - 0.0
25/07:30pm 25.1 23.5 15.1 53 6.1 ESE 17 28 9 15 1020.2 - 0.0
25/07:00pm 25.3 24.3 14.7 51 6.4 ESE 13 22 7 12 1019.7 - 0.0
25/06:30pm 25.9 24.5 14.4 49 6.9 ESE 15 28 8 15 1019.3 - 0.0
25/06:00pm 26.6 25.4 14.0 46 7.6 E 13 20 7 11 1018.9 1017.5 0.0
25/05:30pm 27.6 26.6 14.6 45 7.9 E 13 22 7 12 1018.8 - 0.0
25/05:00pm 27.7 25.0 14.7 45 7.9 E 22 35 12 19 1018.6 - 0.0
25/04:30pm 29.3 27.2 14.7 41 9.0 E 19 33 10 18 1018.3 - 0.0
25/04:00pm 28.4 26.2 15.0 44 8.2 ESE 20 32 11 17 1018.2 - 0.0
25/03:30pm 29.2 27.7 15.3 42 8.6 ESE 17 28 9 15 1018.2 - 0.0
25/03:00pm 29.1 27.2 15.2 42 8.6 ESE 19 35 10 19 1018.4 1017.0 0.0
25/02:30pm 29.3 28.0 15.8 44 8.4 E 17 28 9 15 1018.3 - 0.0
25/02:00pm 28.8 26.5 15.7 45 8.2 E 22 33 12 18 1018.7 - 0.0
25/01:30pm 28.0 26.4 16.0 48 7.5 ESE 19 35 10 19 1019.2 - 0.0
25/01:00pm 27.8 25.8 15.5 47 7.6 E 20 33 11 18 1019.7 - 0.0
25/12:30pm 27.8 25.4 15.5 47 7.6 E 22 35 12 19 1020.3 - 0.0
25/12:00pm 27.2 25.7 16.2 51 6.8 E 19 35 10 19 1020.8 1019.5 0.0
25/11:30am 26.1 23.1 15.8 53 6.4 E 26 39 14 21 1021.1 - 0.0
25/11:00am 26.1 22.8 16.1 54 6.2 E 28 41 15 22 1021.2 - 0.0
25/10:30am 25.5 23.2 15.8 55 6.0 E 22 37 12 20 1021.8 - 0.0
25/10:12am 25.3 21.9 15.9 56 5.8 E 28 46 15 25 1021.9 - 0.0
25/10:00am 25.8 23.1 16.6 56 5.7 E 26 39 14 21 1022.0 - 0.0
25/09:30am 24.6 21.7 16.1 59 5.2 E 26 39 14 21 1022.0 - 0.0
25/09:00am 24.4 22.9 16.4 61 4.9 ESE 19 30 10 16 1021.7 1020.3 0.0
25/08:30am 23.5 22.5 16.5 65 4.3 ESE 17 28 9 15 1021.6 - 0.0
25/08:00am 22.7 21.6 16.3 67 3.9 E 17 26 9 14 1020.9 - 0.0
25/07:30am 22.1 21.9 16.6 71 3.4 E 13 24 7 13 1020.6 - 0.0
25/07:00am 20.9 21.4 16.5 76 2.7 ESE 9 15 5 8 1020.5 - 0.0
25/06:30am 21.1 20.8 16.5 75 2.8 ESE 13 22 7 12 1020.4 - 0.0
25/06:00am 21.3 21.0 16.5 74 2.9 ESE 13 20 7 11 1020.0 - 0.0
25/05:30am 21.2 21.0 16.6 75 2.8 ESE 13 30 7 16 1019.6 - 0.0
25/05:00am 21.3 21.0 16.5 74 2.9 ESE 13 24 7 13 1019.6 - 0.0
25/04:30am 21.4 20.4 16.6 74 3.0 ESE 17 26 9 14 1019.6 - 0.0
25/04:00am 21.3 20.6 16.5 74 2.9 ESE 15 22 8 12 1019.6 - 0.0
25/03:30am 21.5 21.2 16.5 73 3.1 ESE 13 19 7 10 1019.7 - 0.0
25/03:00am 21.6 21.0 16.6 73 3.1 ESE 15 22 8 12 1019.9 1018.5 0.0
25/02:30am 21.6 21.0 16.6 73 3.1 ESE 15 22 8 12 1019.8 - 0.0
25/02:00am 21.4 21.1 16.4 73 3.1 ESE 13 20 7 11 1019.7 - 0.0
25/01:30am 21.5 20.3 16.2 72 3.2 E 17 22 9 12 1019.7 - 0.0
25/01:00am 21.8 20.0 16.1 70 3.5 E 20 33 11 18 1019.9 - 0.0
25/12:30am 21.8 20.5 15.9 69 3.6 ESE 17 30 9 16 1020.1 - 0.0
25/12:00am 22.0 20.2 15.6 67 3.9 E 19 28 10 15 1020.3 1018.9 0.0
 
Date/Time
EST
Temp
°C
App
Temp
°C
Dew
Point
Rel
Hum
%
Delta-T
°C
Wind Press
QNH
hPa
Press
MSL
hPa
Rain
since 9 am
mm
Dir
 
Spd
km/h
Gust
km/h
Spd
kts
Gust
kts
24/11:30pm 22.4 21.1 14.8 62 4.6 ESE 15 28 8 15 1020.5 - 0.0
24/11:00pm 22.8 21.0 14.4 59 5.0 E 17 32 9 17 1020.5 - 0.0
24/10:30pm 23.1 21.1 13.8 55 5.5 E 17 32 9 17 1020.4 - 0.0
24/10:00pm 23.5 20.8 13.4 53 5.9 E 20 33 11 18 1020.3 - 0.0
24/09:30pm 23.9 21.2 12.8 49 6.5 E 19 30 10 16 1020.2 - 0.0
24/09:00pm 24.4 22.1 13.0 49 6.7 E 17 28 9 15 1020.1 - 0.0
24/08:30pm 24.9 22.1 12.5 46 7.2 E 19 28 10 15 1019.8 - 0.0

Other Formats:

Comma delimited format used in spreadsheet applications
http://www.bom.gov.au/fwo/IDQ60801/IDQ60801.94274.axf

JavaScript Object Notation format (JSON) in row-major order
http://www.bom.gov.au/fwo/IDQ60801/IDQ60801.94274.json